Time;durP1;ratioP1;P1;durP2;ratioP2;P2;SDS_P1;SDS_P2;PMS_P1;PMS_P2;Temp;Humidity;BMP_temperature;BMP_pressure;BME280_temperature;BME280_humidity;BME280_pressure;Samples;Min_cycle;Max_cycle;Signal;HPM_P1;HPM_P2
2022/01/06 00:01:46;;;;;;;13.07;9.38;;;;;;;14.92;47.00;100955.94;144992;616;6004;-92
2022/01/06 00:04:14;;;;;;;16.52;11.95;;;;;;;15.14;46.93;100962.37;144992;668;6004;-92
2022/01/06 00:06:42;;;;;;;17.50;13.25;;;;;;;15.20;46.23;100967.72;144992;647;6004;-93
2022/01/06 00:09:11;;;;;;;15.35;11.55;;;;;;;15.25;46.46;100963.41;144992;622;6004;-90
2022/01/06 00:11:38;;;;;;;15.85;12.02;;;;;;;15.27;46.70;100972.19;144992;566;6004;-90
2022/01/06 00:14:17;;;;;;;17.08;12.20;;;;;;;15.31;46.67;100967.88;144992;569;6004;-91
2022/01/06 00:17:03;;;;;;;14.00;11.05;;;;;;;15.31;46.45;100971.34;144992;598;6004;-91
2022/01/06 00:24:58;;;;;;;15.98;10.55;;;;;;;15.16;46.58;100978.97;144997;640;6000;-90
2022/01/06 00:27:25;;;;;;;13.62;10.35;;;;;;;15.18;46.78;100980.75;144992;625;6002;-91
2022/01/06 00:29:51;;;;;;;16.73;11.55;;;;;;;15.18;46.65;100972.91;144992;589;6002;-90
2022/01/06 00:32:18;;;;;;;15.18;10.85;;;;;;;15.20;46.67;100983.41;144992;617;6002;-93
2022/01/06 00:34:46;;;;;;;15.07;10.88;;;;;;;15.20;47.11;100976.41;144992;600;6002;-90
2022/01/06 00:37:36;;;;;;;14.07;10.27;;;;;;;15.15;47.00;100983.31;144992;581;6002;-88
2022/01/06 00:40:21;;;;;;;13.85;10.45;;;;;;;15.17;46.69;100979.00;144992;595;6005;-88
2022/01/06 00:42:48;;;;;;;13.00;10.02;;;;;;;15.20;46.78;100976.41;144992;577;6004;-82
2022/01/06 00:45:17;;;;;;;13.23;10.07;;;;;;;15.21;46.79;100975.56;144992;578;6004;-93
2022/01/06 00:47:44;;;;;;;11.55;8.52;;;;;;;14.91;45.68;100969.88;144992;572;6005;-92
2022/01/06 00:50:11;;;;;;;11.65;8.40;;;;;;;14.81;47.37;100980.19;144992;589;6004;-93
2022/01/06 00:52:39;;;;;;;10.68;7.50;;;;;;;14.63;47.41;100972.91;144992;625;6004;-90
2022/01/06 00:55:06;;;;;;;10.43;7.22;;;;;;;14.47;45.81;100961.25;144992;610;6004;-91
2022/01/06 00:57:36;;;;;;;9.82;7.85;;;;;;;14.72;47.25;100974.81;144992;571;6004;-91
2022/01/06 01:00:05;;;;;;;9.57;7.60;;;;;;;14.84;46.82;100974.12;144992;593;6004;-92
2022/01/06 01:02:32;;;;;;;11.38;7.97;;;;;;;14.93;46.81;100970.78;144992;613;6004;-92
2022/01/06 01:04:59;;;;;;;10.70;7.68;;;;;;;14.99;47.12;100957.81;144992;594;6004;-92
2022/01/06 01:07:25;;;;;;;9.13;7.15;;;;;;;15.01;47.09;100967.41;144992;574;6004;-90
2022/01/06 01:09:52;;;;;;;10.07;7.20;;;;;;;15.07;46.85;100963.16;144992;606;6004;-90
2022/01/06 01:12:23;;;;;;;7.65;5.85;;;;;;;15.11;46.96;100975.41;144992;589;6004;-91
2022/01/06 01:15:05;;;;;;;9.32;6.00;;;;;;;15.14;46.62;100965.87;144992;587;6004;-92
2022/01/06 01:17:33;;;;;;;7.18;5.45;;;;;;;15.12;46.82;100961.50;144992;584;6004;-91
2022/01/06 01:20:01;;;;;;;8.00;5.12;;;;;;;15.17;46.34;100962.44;144992;581;6004;-92
2022/01/06 01:22:41;;;;;;;5.35;4.60;;;;;;;15.14;46.42;100963.25;144992;673;6004;-91
2022/01/06 01:25:15;;;;;;;5.93;4.60;;;;;;;15.20;46.48;100965.09;144992;598;6004;-92
2022/01/06 01:28:00;;;;;;;7.25;5.45;;;;;;;15.24;46.51;100967.78;144992;583;6004;-85
2022/01/06 01:31:24;;;;;;;7.40;5.12;;;;;;;15.29;46.12;100969.56;144992;651;6004;-86
2022/01/06 01:33:52;;;;;;;6.95;5.28;;;;;;;15.30;46.29;100966.09;144992;616;6002;-91
2022/01/06 01:36:22;;;;;;;6.03;4.93;;;;;;;15.30;45.81;100976.56;144992;581;6002;-91
2022/01/06 01:38:48;;;;;;;7.32;4.40;;;;;;;15.31;45.83;100962.63;144992;578;6002;-92
2022/01/06 01:41:16;;;;;;;5.95;4.18;;;;;;;15.30;46.08;100960.88;144992;621;6002;-93
2022/01/06 01:43:47;;;;;;;5.75;4.40;;;;;;;15.34;45.63;100967.91;144991;606;6002;-91
2022/01/06 01:46:17;;;;;;;6.10;4.72;;;;;;;15.35;45.43;100961.81;144992;598;6002;-90
2022/01/06 01:48:51;;;;;;;5.87;4.57;;;;;;;15.32;45.93;100967.00;144992;682;6002;-92
2022/01/06 01:51:18;;;;;;;6.30;4.70;;;;;;;15.22;45.64;100968.59;144992;586;6002;-90
2022/01/06 01:53:45;;;;;;;6.30;3.72;;;;;;;15.26;45.63;100961.69;144992;587;6002;-90
2022/01/06 01:56:13;;;;;;;4.95;3.15;;;;;;;15.16;45.65;100961.56;144992;585;6002;-93
2022/01/06 01:58:40;;;;;;;4.37;3.10;;;;;;;15.14;45.35;100972.84;144992;616;6002;-91
2022/01/06 02:01:09;;;;;;;4.72;3.67;;;;;;;15.18;45.81;100972.03;144992;577;6002;-90
2022/01/06 02:03:36;;;;;;;4.30;3.00;;;;;;;15.25;45.87;100979.09;144992;636;6002;-91
2022/01/06 02:06:06;;;;;;;4.57;3.10;;;;;;;15.33;45.50;100985.31;144992;616;6002;-91
2022/01/06 02:08:33;;;;;;;5.45;3.67;;;;;;;15.39;45.11;100963.63;144992;616;6002;-89
2022/01/06 02:11:00;;;;;;;5.82;3.20;;;;;;;15.34;45.14;100976.63;144992;631;6002;-91
2022/01/06 02:13:30;;;;;;;4.10;3.42;;;;;;;15.40;44.66;100979.34;144992;571;6002;-90
2022/01/06 02:15:59;;;;;;;5.25;3.60;;;;;;;15.42;44.91;100980.22;144992;637;6002;-90
2022/01/06 02:18:27;;;;;;;7.00;3.50;;;;;;;15.43;44.64;100983.75;144992;578;6002;-92
2022/01/06 02:20:54;;;;;;;5.68;4.03;;;;;;;15.40;44.89;100974.09;144992;603;6002;-90
2022/01/06 02:23:29;;;;;;;6.22;4.32;;;;;;;15.37;44.92;100974.06;144992;581;6002;-90
2022/01/06 02:25:55;;;;;;;8.20;5.20;;;;;;;15.39;44.72;100971.47;144992;689;6002;-89
2022/01/06 02:28:25;;;;;;;12.13;7.30;;;;;;;15.24;44.68;100974.75;144992;616;6002;-91
2022/01/06 02:30:54;;;;;;;18.27;6.80;;;;;;;15.28;44.89;100975.66;144992;589;6002;-91
2022/01/06 02:33:22;;;;;;;7.97;5.25;;;;;;;15.06;43.88;100970.09;144992;600;6002;-89
2022/01/06 02:35:49;;;;;;;6.22;3.90;;;;;;;15.09;45.05;100970.16;144992;621;6002;-90
2022/01/06 02:38:16;;;;;;;3.80;2.40;;;;;;;15.12;43.29;100974.56;144992;591;6002;-88
2022/01/06 02:40:45;;;;;;;3.37;2.65;;;;;;;14.99;40.32;100963.03;144992;626;6002;-92
2022/01/06 02:43:14;;;;;;;5.20;3.10;;;;;;;15.12;44.68;100972.81;144992;612;6002;-92
2022/01/06 02:45:42;;;;;;;6.60;3.83;;;;;;;15.29;44.69;100969.56;144992;605;6002;-91
2022/01/06 02:48:10;;;;;;;6.57;3.87;;;;;;;15.24;44.83;100970.41;144992;579;6002;-92
2022/01/06 02:50:40;;;;;;;7.47;4.05;;;;;;;15.36;44.32;100968.81;144992;597;6002;-90
2022/01/06 02:53:10;;;;;;;5.05;3.10;;;;;;;15.38;44.57;100967.97;144992;589;6002;-89
2022/01/06 02:55:47;;;;;;;4.22;2.70;;;;;;;15.42;42.36;100963.66;144992;584;6002;-89
2022/01/06 02:58:14;;;;;;;3.00;2.12;;;;;;;15.41;44.52;100968.03;144992;579;6002;-92
2022/01/06 03:00:56;;;;;;;3.35;2.60;;;;;;;15.47;43.92;100959.37;144992;598;6002;-93
2022/01/06 03:03:45;;;;;;;4.30;2.80;;;;;;;15.51;44.45;100963.78;144992;635;6002;-87
2022/01/06 03:06:18;;;;;;;3.22;1.60;;;;;;;15.50;42.91;100954.19;144992;597;6004;-94
2022/01/06 03:08:59;;;;;;;3.67;2.05;;;;;;;15.44;39.02;100948.84;144992;592;6004;-92
2022/01/06 03:11:51;;;;;;;3.22;1.73;;;;;;;15.53;43.76;100956.84;144992;612;6004;-91
2022/01/06 03:14:22;;;;;;;2.72;1.77;;;;;;;15.36;38.78;100950.50;144992;571;6002;-91
2022/01/06 03:16:56;;;;;;;3.40;1.92;;;;;;;15.44;39.31;100942.75;144992;590;6002;-86
2022/01/06 03:19:33;;;;;;;;;;;;;;;15.52;43.13;100948.97;144997;914;6002;-85
2022/01/06 03:21:59;;;;;;;2.75;1.62;;;;;;;15.55;39.24;100949.88;144997;607;6002;-88
2022/01/06 03:24:26;;;;;;;1.85;1.50;;;;;;;15.66;43.07;100943.91;144992;757;6002;-91
2022/01/06 03:26:52;;;;;;;3.30;1.85;;;;;;;15.60;39.89;100949.94;144992;603;6002;-91
2022/01/06 03:29:19;;;;;;;3.15;1.80;;;;;;;15.71;43.20;100947.47;144992;614;6002;-92
2022/01/06 03:31:46;;;;;;;1.70;1.10;;;;;;;15.57;38.29;100940.34;144992;594;6002;-90
2022/01/06 03:34:13;;;;;;;2.03;0.95;;;;;;;15.60;38.40;100943.00;144992;605;6002;-91
2022/01/06 03:36:41;;;;;;;1.87;1.50;;;;;;;15.78;41.42;100941.50;144992;574;6002;-92
2022/01/06 03:39:09;;;;;;;2.62;1.52;;;;;;;15.86;41.76;100955.53;144992;588;6003;-91
2022/01/06 03:41:36;;;;;;;3.35;2.55;;;;;;;15.95;41.39;100952.13;144992;678;6002;-88
2022/01/06 03:44:06;;;;;;;2.80;1.85;;;;;;;15.81;38.88;100957.19;144992;569;6011;-91
2022/01/06 03:46:33;;;;;;;4.12;2.53;;;;;;;15.80;41.58;100947.62;144992;602;6003;-91
2022/01/06 03:49:00;;;;;;;7.57;2.90;;;;;;;15.89;41.20;100952.06;144992;592;6002;-91
2022/01/06 03:51:27;;;;;;;4.65;3.10;;;;;;;15.84;41.55;100952.00;144991;566;6002;-90
2022/01/06 03:54:01;;;;;;;5.75;2.95;;;;;;;15.80;41.42;100946.75;144992;574;6002;-94
2022/01/06 03:56:27;;;;;;;4.43;2.53;;;;;;;15.81;41.39;100953.72;144992;609;6002;-90
2022/01/06 03:59:06;;;;;;;3.10;2.25;;;;;;;15.74;41.24;100955.34;144992;569;6004;-92
2022/01/06 04:01:34;;;;;;;8.93;2.60;;;;;;;15.74;41.43;100952.75;144992;583;6002;-91
2022/01/06 04:04:00;;;;;;;3.58;1.80;;;;;;;15.70;41.37;100946.59;144992;600;6002;-92
2022/01/06 04:06:27;;;;;;;2.85;2.17;;;;;;;15.69;40.81;100947.44;144992;571;6002;-92
2022/01/06 04:08:54;;;;;;;4.15;2.70;;;;;;;15.67;41.13;100948.28;144992;581;6002;-92
2022/01/06 04:11:20;;;;;;;3.92;2.35;;;;;;;15.70;41.24;100950.94;144991;651;6002;-90
2022/01/06 04:13:47;;;;;;;5.32;2.45;;;;;;;15.51;40.88;100953.34;144992;583;6002;-91
2022/01/06 04:16:16;;;;;;;4.15;2.47;;;;;;;15.55;41.14;100951.63;144992;634;6002;-93
2022/01/06 04:18:43;;;;;;;4.62;2.95;;;;;;;15.51;41.64;100961.19;144992;605;6002;-91
2022/01/06 04:21:14;;;;;;;3.58;3.08;;;;;;;15.49;41.34;100960.25;144992;597;6002;-88
2022/01/06 04:23:42;;;;;;;4.68;2.37;;;;;;;15.41;41.70;100957.56;144992;581;6002;-90
2022/01/06 04:26:09;;;;;;;5.32;3.05;;;;;;;15.39;41.90;100966.25;144992;685;6002;-91
2022/01/06 04:28:37;;;;;;;6.60;2.83;;;;;;;15.37;41.28;100962.72;144992;615;6002;-91
2022/01/06 04:31:04;;;;;;;3.80;2.60;;;;;;;15.37;41.59;100966.22;144993;591;6002;-93
2022/01/06 04:33:33;;;;;;;4.15;2.60;;;;;;;15.36;41.41;100971.41;144993;576;6002;-91
2022/01/06 04:36:01;;;;;;;4.45;2.85;;;;;;;15.28;41.97;100970.44;144992;569;6002;-90
2022/01/06 04:38:28;;;;;;;4.28;3.00;;;;;;;15.28;42.00;100967.81;144993;563;6002;-93
2022/01/06 04:40:56;;;;;;;4.93;3.55;;;;;;;15.27;42.04;100972.19;144993;578;6002;-91
2022/01/06 04:43:26;;;;;;;9.45;5.68;;;;;;;15.14;42.05;100973.72;144993;589;6002;-90
2022/01/06 04:45:54;;;;;;;8.45;4.70;;;;;;;15.16;42.45;100977.25;144993;626;6003;-92
2022/01/06 04:48:21;;;;;;;9.20;5.18;;;;;;;15.12;42.39;100964.97;144993;722;6002;-92
2022/01/06 04:50:47;;;;;;;6.97;4.87;;;;;;;15.10;42.59;100971.06;144993;589;6002;-91
2022/01/06 04:53:14;;;;;;;7.87;5.60;;;;;;;15.07;42.30;100971.88;144993;602;6003;-90
2022/01/06 04:55:41;;;;;;;7.15;4.72;;;;;;;15.07;42.63;100968.41;144993;612;6002;-92
2022/01/06 04:58:13;;;;;;;7.20;4.30;;;;;;;15.07;42.26;100974.50;144993;778;6002;-92
2022/01/06 05:00:46;;;;;;;6.82;4.60;;;;;;;15.07;42.44;100977.09;144993;637;6002;-92
2022/01/06 05:03:28;;;;;;;4.87;3.97;;;;;;;15.05;42.55;100984.06;144992;597;6002;-85
2022/01/06 05:06:54;;;;;;;;;;;;;;;;;;;;;
2022/01/06 05:12:02;;;;;;;9.65;4.15;;;;;;;14.95;43.12;100990.84;144992;592;6002;-89
2022/01/06 05:14:30;;;;;;;7.78;4.80;;;;;;;14.97;43.10;100997.00;144992;620;6002;-93
2022/01/06 05:16:59;;;;;;;6.68;4.25;;;;;;;14.96;43.29;101002.19;144993;653;6002;-91
2022/01/06 05:19:26;;;;;;;9.18;4.65;;;;;;;14.96;43.50;100992.63;144993;784;6002;-90
2022/01/06 05:21:54;;;;;;;7.97;4.07;;;;;;;14.92;43.25;100992.53;144993;571;6002;-91
2022/01/06 05:24:23;;;;;;;5.40;3.97;;;;;;;14.93;43.48;100991.69;144993;606;6002;-93
2022/01/06 05:26:51;;;;;;;7.10;5.57;;;;;;;14.96;43.44;100994.34;144993;592;6002;-92
2022/01/06 05:29:19;;;;;;;9.25;5.60;;;;;;;14.95;43.55;100987.34;144993;589;6002;-91
2022/01/06 05:31:46;;;;;;;8.10;5.25;;;;;;;14.92;43.76;100997.75;144993;591;6002;-91
2022/01/06 05:34:13;;;;;;;8.63;5.80;;;;;;;14.90;43.53;100991.62;144993;628;6002;-92
2022/01/06 05:36:40;;;;;;;11.98;9.07;;;;;;;14.85;43.41;100991.56;144993;611;6002;-91
2022/01/06 05:39:09;;;;;;;11.98;7.53;;;;;;;14.86;43.50;100994.19;144993;816;6002;-92
2022/01/06 05:41:36;;;;;;;11.12;8.27;;;;;;;14.91;43.29;100994.28;144993;579;6002;-92
2022/01/06 05:44:03;;;;;;;10.70;9.10;;;;;;;14.92;43.56;101003.91;144993;602;6002;-92
2022/01/06 05:46:30;;;;;;;13.50;10.80;;;;;;;14.93;43.19;101002.16;144993;587;6002;-91
2022/01/06 05:48:59;;;;;;;12.18;8.65;;;;;;;14.94;43.20;101006.53;144993;611;6002;-86
2022/01/06 05:51:27;;;;;;;14.70;7.95;;;;;;;14.96;43.12;101007.44;144993;576;6002;-84
2022/01/06 05:54:02;;;;;;;9.68;7.80;;;;;;;14.96;43.60;101010.91;144993;721;6002;-90
2022/01/06 05:56:29;;;;;;;9.82;6.70;;;;;;;14.97;43.60;101010.06;144993;629;6002;-92
2022/01/06 05:59:18;;;;;;;8.85;5.93;;;;;;;14.92;43.39;101009.13;144993;581;6002;-91
2022/01/06 06:01:46;;;;;;;8.35;5.53;;;;;;;14.93;43.75;101005.63;144993;586;6002;-93
2022/01/06 06:04:13;;;;;;;7.68;5.78;;;;;;;14.95;44.11;101003.03;144993;814;6002;-91
2022/01/06 06:06:43;;;;;;;6.65;5.80;;;;;;;14.97;43.73;100993.47;144993;626;6002;-95
2022/01/06 06:09:10;;;;;;;12.30;10.55;;;;;;;14.99;43.79;100992.66;144993;769;6002;-93
2022/01/06 06:11:37;;;;;;;8.70;7.53;;;;;;;15.03;43.64;100998.81;144994;579;5002;-92
2022/01/06 06:14:05;;;;;;;10.55;9.18;;;;;;;15.02;43.61;100995.31;144994;610;5002;-94
2022/01/06 06:16:31;;;;;;;7.65;6.03;;;;;;;15.13;44.12;100992.00;144994;575;5002;-90
2022/01/06 06:18:58;;;;;;;9.32;6.25;;;;;;;15.41;43.70;101004.66;144994;595;5002;-91
2022/01/06 06:21:25;;;;;;;7.32;5.55;;;;;;;15.93;43.09;101006.22;144994;784;5002;-91
2022/01/06 06:23:51;;;;;;;5.20;4.70;;;;;;;16.53;42.83;101006.91;144994;581;5002;-92
2022/01/06 06:26:18;;;;;;;5.20;4.60;;;;;;;17.01;40.52;101013.47;144994;564;5002;-91
2022/01/06 06:28:44;;;;;;;6.32;4.50;;;;;;;17.57;41.22;101014.72;144994;619;5002;-92
2022/01/06 06:31:14;;;;;;;6.00;4.07;;;;;;;18.07;40.66;101017.59;144994;564;5002;-89
2022/01/06 06:33:41;;;;;;;5.32;3.62;;;;;;;18.40;39.72;101021.22;144993;571;5002;-92
2022/01/06 06:36:08;;;;;;;4.85;3.75;;;;;;;18.71;39.75;101016.87;144994;572;5002;-92
2022/01/06 06:38:34;;;;;;;7.37;4.28;;;;;;;19.20;39.19;101016.03;144994;572;5002;-91
2022/01/06 06:41:01;;;;;;;5.25;3.80;;;;;;;19.68;38.44;101021.22;144994;585;5002;-91
2022/01/06 06:43:28;;;;;;;6.85;3.87;;;;;;;19.64;38.32;101020.31;144994;578;5002;-92
2022/01/06 06:45:55;;;;;;;6.18;4.72;;;;;;;19.39;38.58;101017.78;144994;645;5002;-91
2022/01/06 06:48:24;;;;;;;7.95;4.55;;;;;;;19.14;39.28;101021.31;144993;566;5002;-90
2022/01/06 06:51:02;;;;;;;6.22;4.45;;;;;;;18.97;38.81;101010.78;144994;676;5002;-86
2022/01/06 06:53:48;;;;;;;7.78;4.37;;;;;;;18.81;39.21;101023.03;144994;572;5002;-85
2022/01/06 06:56:20;;;;;;;6.90;5.10;;;;;;;18.65;38.77;101030.03;144994;608;5002;-92
2022/01/06 06:58:47;;;;;;;7.10;4.40;;;;;;;18.48;38.92;101035.25;144994;661;5002;-89
2022/01/06 07:01:37;;;;;;;;;;;;;;;;;;;;;
2022/01/06 07:04:14;;;;;;;5.95;4.70;;;;;;;18.62;39.76;101043.16;144994;679;5004;-91
2022/01/06 07:06:41;;;;;;;6.90;5.03;;;;;;;18.93;39.83;101037.97;144994;740;5004;-91
2022/01/06 07:09:08;;;;;;;5.93;4.97;;;;;;;18.98;39.34;101036.22;144994;579;5004;-92
2022/01/06 07:11:34;;;;;;;6.75;4.50;;;;;;;18.96;39.38;101041.50;144994;606;5004;-91
2022/01/06 07:14:01;;;;;;;7.68;4.97;;;;;;;18.86;38.85;101037.09;144994;601;5004;-92
2022/01/06 07:16:28;;;;;;;7.28;5.28;;;;;;;18.81;38.61;101041.44;144994;574;5004;-90
2022/01/06 07:18:55;;;;;;;7.32;5.32;;;;;;;18.89;38.68;101041.47;144994;567;5004;-92
2022/01/06 07:21:21;;;;;;;7.53;5.97;;;;;;;19.11;38.47;101051.13;144994;590;5004;-89
2022/01/06 07:23:49;;;;;;;8.40;7.12;;;;;;;19.19;37.97;101059.03;144994;587;5004;-90
2022/01/06 07:26:18;;;;;;;8.68;6.80;;;;;;;19.04;37.60;101057.25;144994;572;5004;-91
2022/01/06 07:28:46;;;;;;;9.85;6.60;;;;;;;19.02;37.79;101057.25;144994;618;5004;-94
2022/01/06 07:31:14;;;;;;;5.07;3.80;;;;;;;19.17;38.08;101053.75;144994;648;5004;-89
2022/01/06 07:33:40;;;;;;;6.90;5.20;;;;;;;19.31;38.07;101053.75;144994;575;5004;-90
2022/01/06 07:36:07;;;;;;;8.48;6.03;;;;;;;19.62;37.15;101055.47;144994;706;5004;-91
2022/01/06 07:38:35;;;;;;;8.63;6.00;;;;;;;19.81;37.71;101051.06;144994;572;5004;-90
2022/01/06 07:41:02;;;;;;;9.23;6.50;;;;;;;20.04;37.21;101054.47;144994;593;5004;-88
2022/01/06 07:43:34;;;;;;;9.25;6.20;;;;;;;20.23;37.95;101052.62;144994;596;5004;-94
2022/01/06 07:46:10;;;;;;;10.30;6.47;;;;;;;20.41;37.56;101053.41;144994;602;5004;-91
2022/01/06 07:48:54;;;;;;;7.30;6.20;;;;;;;20.67;37.39;101065.62;144993;629;5004;-92
2022/01/06 07:51:23;;;;;;;8.13;6.28;;;;;;;20.91;36.92;101056.66;144994;573;5002;-91
2022/01/06 07:53:59;;;;;;;11.52;6.40;;;;;;;21.15;36.60;101064.34;144994;621;5002;-92
2022/01/06 07:56:26;;;;;;;8.35;5.82;;;;;;;21.28;36.02;101065.13;144994;802;5002;-93
2022/01/06 07:59:14;;;;;;;9.23;6.60;;;;;;;21.44;35.94;101065.84;144994;641;5002;-93
2022/01/06 08:01:42;;;;;;;8.80;6.35;;;;;;;21.56;35.62;101064.91;144994;684;5002;-89
2022/01/06 08:04:13;;;;;;;10.32;7.10;;;;;;;21.62;35.17;101078.06;144994;676;5002;-89
2022/01/06 08:06:41;;;;;;;10.63;7.00;;;;;;;21.53;35.23;101065.78;144994;566;5007;-91
2022/01/06 08:09:08;;;;;;;8.55;6.35;;;;;;;21.38;35.97;101066.81;144994;592;5002;-90
2022/01/06 08:11:35;;;;;;;9.43;7.25;;;;;;;21.35;35.88;101072.09;144994;564;5004;-92
2022/01/06 08:14:09;;;;;;;7.15;4.93;;;;;;;21.23;36.48;101072.22;144994;563;5002;-90
2022/01/06 08:16:35;;;;;;;8.02;5.80;;;;;;;21.21;36.96;101079.28;144994;575;5002;-92
2022/01/06 08:19:05;;;;;;;7.70;5.90;;;;;;;21.30;37.11;101086.22;144994;563;5002;-90
2022/01/06 08:21:36;;;;;;;8.15;5.72;;;;;;;21.33;37.09;101073.91;144994;563;5002;-90
2022/01/06 08:24:52;;;;;;;6.80;5.78;;;;;;;21.24;37.48;101071.34;144994;630;5002;-94
2022/01/06 08:28:14;;;;;;;7.53;5.43;;;;;;;21.11;37.87;101067.03;144994;666;5002;-91
2022/01/06 08:30:41;;;;;;;6.25;4.80;;;;;;;21.11;38.48;101072.31;144994;597;5002;-87
2022/01/06 08:33:12;;;;;;;10.18;6.00;;;;;;;21.19;38.53;101073.16;144994;640;5002;-91
2022/01/06 08:35:39;;;;;;;10.35;6.85;;;;;;;21.35;38.56;101071.25;144994;649;5002;-92
2022/01/06 08:38:10;;;;;;;8.18;5.82;;;;;;;21.55;38.62;101069.31;144994;573;5002;-85
2022/01/06 08:40:59;;;;;;;8.55;6.15;;;;;;;21.75;38.80;101073.50;144994;642;5002;-83
2022/01/06 08:43:27;;;;;;;7.80;6.55;;;;;;;21.99;38.37;101074.13;144994;639;5002;-89
2022/01/06 08:45:56;;;;;;;10.48;7.70;;;;;;;22.17;38.86;101073.00;144994;611;5002;-92
2022/01/06 08:48:25;;;;;;;8.13;6.55;;;;;;;22.26;38.73;101067.63;144994;718;5002;-93
2022/01/06 08:50:59;;;;;;;7.00;5.30;;;;;;;22.27;38.30;101062.31;144994;565;5002;-83
2022/01/06 08:53:29;;;;;;;7.23;5.30;;;;;;;22.28;38.39;101065.81;144994;580;5002;-92
2022/01/06 08:55:58;;;;;;;6.50;5.10;;;;;;;22.27;38.60;101069.34;144994;563;5004;-90
2022/01/06 08:58:28;;;;;;;6.95;5.15;;;;;;;22.25;38.89;101071.16;144994;569;5002;-91
2022/01/06 09:00:54;;;;;;;7.18;4.93;;;;;;;22.20;38.87;101072.97;144994;565;5002;-91
2022/01/06 09:03:21;;;;;;;6.05;5.00;;;;;;;22.15;38.83;101075.69;144994;619;5002;-88
2022/01/06 09:05:47;;;;;;;5.90;4.93;;;;;;;22.12;39.12;101069.56;144994;566;5002;-90
2022/01/06 09:08:14;;;;;;;6.82;5.07;;;;;;;22.05;38.75;101067.00;144994;586;5002;-91
2022/01/06 09:10:41;;;;;;;7.60;5.00;;;;;;;22.01;38.76;101061.75;144994;599;5002;-94
2022/01/06 09:13:08;;;;;;;6.90;4.45;;;;;;;21.94;39.04;101068.91;144994;582;5002;-89
2022/01/06 09:15:37;;;;;;;7.25;4.93;;;;;;;21.91;39.32;101061.00;144994;590;5002;-90
2022/01/06 09:18:04;;;;;;;6.22;4.47;;;;;;;21.88;39.39;101059.25;144993;590;5002;-91
2022/01/06 09:20:32;;;;;;;5.93;4.85;;;;;;;21.96;39.87;101059.16;144994;577;5002;-88
2022/01/06 09:22:58;;;;;;;8.32;5.35;;;;;;;22.09;39.49;101050.19;144994;587;5002;-92
2022/01/06 09:25:43;;;;;;;;;;;;;;;;;;;;;
2022/01/06 09:28:35;;;;;;;7.15;5.40;;;;;;;22.47;39.40;101037.37;144994;623;5005;-84
2022/01/06 09:31:02;;;;;;;8.15;5.80;;;;;;;22.57;39.24;101027.53;144994;566;5004;-91
2022/01/06 09:33:34;;;;;;;10.18;6.28;;;;;;;22.69;38.70;101027.34;144994;597;5004;-90
2022/01/06 09:36:14;;;;;;;9.00;5.70;;;;;;;22.77;38.61;101028.09;144994;572;5005;-92
2022/01/06 09:46:30;;;;;;;7.55;5.47;;;;;;;22.96;38.70;101010.16;144994;636;5002;-90
2022/01/06 09:49:00;;;;;;;8.57;6.00;;;;;;;22.99;38.71;101010.09;144994;570;5002;-86
2022/01/06 09:51:31;;;;;;;8.25;6.20;;;;;;;23.06;38.48;101002.06;144994;590;5002;-85
2022/01/06 09:59:04;;;;;;;7.80;5.50;;;;;;;23.15;38.25;101000.13;144994;578;5002;-88
2022/01/06 10:01:30;;;;;;;8.38;6.40;;;;;;;23.09;37.84;100996.72;144994;608;5002;-89
2022/01/06 10:03:57;;;;;;;8.30;6.15;;;;;;;23.04;38.71;100994.13;144994;575;5002;-87
2022/01/06 10:07:15;;;;;;;;;;;;;;;;;;;;;
2022/01/06 10:10:25;;;;;;;;;;;;;;;;;;;;;
2022/01/06 10:13:21;;;;;;;;;;;;;;;;;;;;;
2022/01/06 10:16:13;;;;;;;8.40;5.20;;;;;;;22.79;38.32;100994.53;144994;609;5004;-85
2022/01/06 10:18:53;;;;;;;8.07;5.10;;;;;;;22.77;37.98;100979.59;144994;590;5004;-90
2022/01/06 10:21:20;;;;;;;10.93;8.50;;;;;;;22.74;37.33;100977.00;144994;587;5004;-94
2022/01/06 10:24:05;;;;;;;14.32;8.50;;;;;;;22.65;37.09;100964.78;144994;572;5004;-84
2022/01/06 10:27:22;;;;;;;8.57;5.82;;;;;;;22.67;37.22;100976.25;144994;583;5004;-92
2022/01/06 10:29:59;;;;;;;6.43;3.78;;;;;;;22.48;36.83;100980.94;144994;570;5002;-84
2022/01/06 10:32:27;;;;;;;7.30;4.55;;;;;;;22.41;36.42;100976.63;144994;564;5002;-92
2022/01/06 10:35:02;;;;;;;7.05;3.90;;;;;;;22.33;36.29;100962.66;144994;569;5002;-94
2022/01/06 10:37:34;;;;;;;7.40;5.55;;;;;;;22.02;36.71;100971.88;144994;648;5002;-90
2022/01/06 10:40:22;;;;;;;9.70;6.45;;;;;;;21.35;37.49;100969.13;144994;601;5002;-83
2022/01/06 10:42:53;;;;;;;6.68;5.18;;;;;;;21.50;37.98;100961.97;144994;590;4566;-91
2022/01/06 10:45:25;;;;;;;4.65;3.50;;;;;;;21.55;37.57;100963.66;144994;574;4567;-92
2022/01/06 10:47:56;;;;;;;6.57;5.53;;;;;;;21.64;37.96;100957.38;144994;629;4572;-93
2022/01/06 10:50:30;;;;;;;4.70;3.00;;;;;;;21.77;37.43;100951.94;144993;570;6002;-83
2022/01/06 10:53:06;;;;;;;4.40;3.67;;;;;;;21.75;36.90;100951.97;144992;586;6002;-85
2022/01/06 10:55:39;;;;;;;5.75;3.83;;;;;;;21.43;36.32;100955.84;144992;587;6002;-92
2022/01/06 10:58:13;;;;;;;4.07;3.03;;;;;;;21.47;37.39;100954.91;144992;571;6002;-82
2022/01/06 11:00:46;;;;;;;5.72;3.25;;;;;;;21.35;36.61;100955.06;144992;656;6002;-82
2022/01/06 11:03:20;;;;;;;5.43;3.97;;;;;;;21.22;36.93;100954.31;144992;593;6002;-91
2022/01/06 11:05:53;;;;;;;6.55;3.87;;;;;;;20.67;38.02;100949.56;144992;567;6002;-92
2022/01/06 11:08:24;;;;;;;7.70;4.60;;;;;;;20.70;38.13;100946.91;144992;580;6002;-92
2022/01/06 11:13:53;;;;;;;9.30;3.83;;;;;;;21.09;37.79;100939.47;144992;590;6004;-95
2022/01/06 11:16:20;;;;;;;6.80;3.45;;;;;;;20.74;37.82;100936.28;144992;636;6004;-85
2022/01/06 11:19:05;;;;;;;5.60;3.30;;;;;;;20.70;38.34;100928.44;144992;580;6004;-91
2022/01/06 11:21:44;;;;;;;5.50;4.00;;;;;;;20.65;38.84;100926.69;144992;595;6004;-92
2022/01/06 11:24:24;;;;;;;5.55;3.87;;;;;;;20.62;38.84;100921.41;144992;589;6004;-93
2022/01/06 11:27:09;;;;;;;4.55;3.55;;;;;;;20.20;39.64;100912.97;144992;565;6004;-87
2022/01/06 11:29:45;;;;;;;4.55;3.65;;;;;;;19.84;40.59;100916.72;144992;571;6004;-90
2022/01/06 11:32:24;;;;;;;4.82;3.30;;;;;;;20.03;40.12;100914.84;144992;578;6004;-92
2022/01/06 11:35:00;;;;;;;4.57;3.12;;;;;;;19.96;40.06;100916.62;144992;605;6005;-90
2022/01/06 11:37:39;;;;;;;7.12;3.33;;;;;;;20.03;43.10;100910.44;144992;583;6004;-91
2022/01/06 11:40:07;;;;;;;3.67;2.90;;;;;;;19.82;43.23;100911.44;144992;571;6004;-92
2022/01/06 11:42:34;;;;;;;5.10;3.10;;;;;;;19.84;42.16;100909.66;144992;580;6005;-85
2022/01/06 11:45:01;;;;;;;4.45;2.95;;;;;;;19.71;42.53;100907.94;144992;609;6004;-91
2022/01/06 11:47:38;;;;;;;4.75;3.33;;;;;;;20.14;41.64;100907.75;144992;688;6004;-92
2022/01/06 11:50:21;;;;;;;4.43;3.42;;;;;;;20.49;42.03;100917.16;144992;642;6004;-92
2022/01/06 11:52:59;;;;;;;4.78;3.67;;;;;;;20.34;43.90;100917.25;144992;572;6004;-84
2022/01/06 11:55:45;;;;;;;5.90;3.60;;;;;;;20.47;42.26;100911.00;144992;594;6004;-93
2022/01/06 11:58:19;;;;;;;4.93;3.58;;;;;;;20.70;42.31;100908.19;144992;599;6004;-92
2022/01/06 12:01:15;;;;;;;3.85;3.15;;;;;;;20.62;41.83;100908.22;144992;637;6004;-93
2022/01/06 12:03:47;;;;;;;4.37;2.97;;;;;;;20.44;41.87;100908.37;144992;610;6002;-93
2022/01/06 12:06:31;;;;;;;3.65;2.95;;;;;;;20.45;41.84;100902.22;144992;688;6002;-92
2022/01/06 12:08:59;;;;;;;4.93;2.95;;;;;;;20.76;41.33;100904.63;144992;588;6002;-93
2022/01/06 12:11:29;;;;;;;4.93;2.78;;;;;;;20.51;41.23;100904.81;144991;655;6002;-92
2022/01/06 12:14:24;;;;;;;;;;;;;;;;;;;;;
2022/01/06 12:17:35;;;;;;;;;;;;;;;;;;;;;
2022/01/06 12:20:06;;;;;;;4.12;2.37;;;;;;;20.50;40.37;100889.00;144992;680;6002;-88
2022/01/06 12:22:32;;;;;;;5.25;2.47;;;;;;;20.19;40.74;100889.25;144992;703;6002;-93
2022/01/06 12:25:04;;;;;;;5.47;2.87;;;;;;;19.54;42.65;100886.97;144992;607;6002;-91
2022/01/06 12:27:33;;;;;;;5.50;2.80;;;;;;;19.86;42.27;100881.53;144992;614;6003;-90
2022/01/06 12:30:27;;;;;;;4.82;2.65;;;;;;;19.75;43.04;100885.97;144992;567;6002;-83